sensor_id;sensor_type;location;lat;lon;timestamp;P1;durP1;ratioP1;P2;durP2;ratioP2
57889;SDS011;43707;50.184;18.966;2023-03-03T00:01:06;6.90;;;5.00;;
57889;SDS011;43707;50.184;18.966;2023-03-03T00:03:32;8.30;;;4.30;;
57889;SDS011;43707;50.184;18.966;2023-03-03T00:05:58;7.10;;;4.70;;
57889;SDS011;43707;50.184;18.966;2023-03-03T00:08:23;8.70;;;5.10;;
57889;SDS011;43707;50.184;18.966;2023-03-03T00:10:49;8.70;;;5.80;;
57889;SDS011;43707;50.184;18.966;2023-03-03T00:13:16;9.70;;;5.80;;
57889;SDS011;43707;50.184;18.966;2023-03-03T00:15:42;10.70;;;6.60;;
57889;SDS011;43707;50.184;18.966;2023-03-03T00:18:20;13.90;;;7.60;;
57889;SDS011;43707;50.184;18.966;2023-03-03T00:20:54;18.10;;;9.50;;
57889;SDS011;43707;50.184;18.966;2023-03-03T00:25:53;14.40;;;7.90;;
57889;SDS011;43707;50.184;18.966;2023-03-03T00:28:26;13.40;;;8.10;;
57889;SDS011;43707;50.184;18.966;2023-03-03T00:30:56;13.00;;;7.60;;
57889;SDS011;43707;50.184;18.966;2023-03-03T00:36:09;15.00;;;7.20;;
57889;SDS011;43707;50.184;18.966;2023-03-03T00:38:47;14.80;;;7.50;;
57889;SDS011;43707;50.184;18.966;2023-03-03T00:41:22;10.90;;;6.90;;
57889;SDS011;43707;50.184;18.966;2023-03-03T00:43:49;14.90;;;7.90;;
57889;SDS011;43707;50.184;18.966;2023-03-03T00:46:19;10.90;;;6.80;;
57889;SDS011;43707;50.184;18.966;2023-03-03T00:48:46;11.60;;;6.90;;
57889;SDS011;43707;50.184;18.966;2023-03-03T00:51:20;12.40;;;6.90;;
57889;SDS011;43707;50.184;18.966;2023-03-03T00:53:51;10.00;;;6.60;;
57889;SDS011;43707;50.184;18.966;2023-03-03T00:56:16;11.50;;;6.20;;
57889;SDS011;43707;50.184;18.966;2023-03-03T00:58:41;12.60;;;7.10;;
57889;SDS011;43707;50.184;18.966;2023-03-03T01:01:09;11.60;;;7.00;;
57889;SDS011;43707;50.184;18.966;2023-03-03T01:03:35;8.90;;;5.50;;
57889;SDS011;43707;50.184;18.966;2023-03-03T01:06:00;8.30;;;5.90;;
57889;SDS011;43707;50.184;18.966;2023-03-03T01:08:26;10.60;;;6.60;;
57889;SDS011;43707;50.184;18.966;2023-03-03T01:10:52;10.60;;;5.70;;
57889;SDS011;43707;50.184;18.966;2023-03-03T01:13:20;12.40;;;7.10;;
57889;SDS011;43707;50.184;18.966;2023-03-03T01:15:48;7.60;;;5.10;;
57889;SDS011;43707;50.184;18.966;2023-03-03T01:18:14;7.30;;;4.70;;
57889;SDS011;43707;50.184;18.966;2023-03-03T01:20:40;9.60;;;5.90;;
57889;SDS011;43707;50.184;18.966;2023-03-03T01:23:05;7.10;;;4.30;;
57889;SDS011;43707;50.184;18.966;2023-03-03T01:25:31;8.60;;;5.10;;
57889;SDS011;43707;50.184;18.966;2023-03-03T01:27:56;6.10;;;4.10;;
57889;SDS011;43707;50.184;18.966;2023-03-03T01:30:22;6.00;;;4.30;;
57889;SDS011;43707;50.184;18.966;2023-03-03T01:32:49;6.30;;;3.90;;
57889;SDS011;43707;50.184;18.966;2023-03-03T01:35:14;4.80;;;3.60;;
57889;SDS011;43707;50.184;18.966;2023-03-03T01:37:40;6.90;;;4.20;;
57889;SDS011;43707;50.184;18.966;2023-03-03T01:40:06;5.30;;;3.90;;
57889;SDS011;43707;50.184;18.966;2023-03-03T01:42:32;4.80;;;3.90;;
57889;SDS011;43707;50.184;18.966;2023-03-03T01:45:09;4.40;;;3.80;;
57889;SDS011;43707;50.184;18.966;2023-03-03T01:47:38;4.00;;;3.40;;
57889;SDS011;43707;50.184;18.966;2023-03-03T01:50:13;4.30;;;3.40;;
57889;SDS011;43707;50.184;18.966;2023-03-03T01:52:42;4.80;;;3.60;;
57889;SDS011;43707;50.184;18.966;2023-03-03T01:55:13;3.40;;;3.00;;
57889;SDS011;43707;50.184;18.966;2023-03-03T01:57:51;3.50;;;3.20;;
57889;SDS011;43707;50.184;18.966;2023-03-03T02:00:21;3.50;;;3.00;;
57889;SDS011;43707;50.184;18.966;2023-03-03T02:02:47;3.30;;;3.00;;
57889;SDS011;43707;50.184;18.966;2023-03-03T02:05:12;3.30;;;3.00;;
57889;SDS011;43707;50.184;18.966;2023-03-03T02:07:39;3.50;;;2.70;;
57889;SDS011;43707;50.184;18.966;2023-03-03T02:12:40;3.60;;;2.80;;
57889;SDS011;43707;50.184;18.966;2023-03-03T02:15:30;3.00;;;2.60;;
57889;SDS011;43707;50.184;18.966;2023-03-03T02:18:04;4.00;;;3.30;;
57889;SDS011;43707;50.184;18.966;2023-03-03T02:28:35;4.20;;;2.80;;
57889;SDS011;43707;50.184;18.966;2023-03-03T02:31:02;5.10;;;2.90;;
57889;SDS011;43707;50.184;18.966;2023-03-03T02:33:29;4.20;;;2.90;;
57889;SDS011;43707;50.184;18.966;2023-03-03T02:35:55;3.40;;;2.70;;
57889;SDS011;43707;50.184;18.966;2023-03-03T02:38:36;6.50;;;2.90;;
57889;SDS011;43707;50.184;18.966;2023-03-03T02:41:25;2.50;;;2.10;;
57889;SDS011;43707;50.184;18.966;2023-03-03T02:46:31;2.50;;;2.20;;
57889;SDS011;43707;50.184;18.966;2023-03-03T02:49:04;3.00;;;2.50;;
57889;SDS011;43707;50.184;18.966;2023-03-03T02:51:30;3.80;;;2.90;;
57889;SDS011;43707;50.184;18.966;2023-03-03T02:53:56;3.40;;;3.10;;
57889;SDS011;43707;50.184;18.966;2023-03-03T02:56:21;3.60;;;2.70;;
57889;SDS011;43707;50.184;18.966;2023-03-03T02:58:47;3.60;;;3.20;;
57889;SDS011;43707;50.184;18.966;2023-03-03T03:01:13;3.60;;;3.00;;
57889;SDS011;43707;50.184;18.966;2023-03-03T03:03:38;3.50;;;2.30;;
57889;SDS011;43707;50.184;18.966;2023-03-03T03:06:03;3.50;;;3.10;;
57889;SDS011;43707;50.184;18.966;2023-03-03T03:08:29;3.90;;;3.10;;
57889;SDS011;43707;50.184;18.966;2023-03-03T03:10:54;4.30;;;3.20;;
57889;SDS011;43707;50.184;18.966;2023-03-03T03:13:21;4.10;;;3.00;;
57889;SDS011;43707;50.184;18.966;2023-03-03T03:15:47;4.50;;;2.90;;
57889;SDS011;43707;50.184;18.966;2023-03-03T03:18:13;3.40;;;2.80;;
57889;SDS011;43707;50.184;18.966;2023-03-03T03:20:39;4.10;;;3.60;;
57889;SDS011;43707;50.184;18.966;2023-03-03T03:23:06;7.00;;;3.30;;
57889;SDS011;43707;50.184;18.966;2023-03-03T03:25:32;3.60;;;2.70;;
57889;SDS011;43707;50.184;18.966;2023-03-03T03:27:57;4.10;;;3.00;;
57889;SDS011;43707;50.184;18.966;2023-03-03T03:30:22;4.30;;;3.30;;
57889;SDS011;43707;50.184;18.966;2023-03-03T03:32:48;4.40;;;2.90;;
57889;SDS011;43707;50.184;18.966;2023-03-03T03:35:13;6.00;;;2.60;;
57889;SDS011;43707;50.184;18.966;2023-03-03T03:37:41;4.60;;;3.40;;
57889;SDS011;43707;50.184;18.966;2023-03-03T03:40:07;4.00;;;3.10;;
57889;SDS011;43707;50.184;18.966;2023-03-03T03:42:34;4.30;;;3.30;;
57889;SDS011;43707;50.184;18.966;2023-03-03T03:45:00;6.10;;;3.00;;
57889;SDS011;43707;50.184;18.966;2023-03-03T03:47:25;3.80;;;2.80;;
57889;SDS011;43707;50.184;18.966;2023-03-03T03:49:50;5.00;;;3.50;;
57889;SDS011;43707;50.184;18.966;2023-03-03T03:52:16;3.60;;;2.50;;
57889;SDS011;43707;50.184;18.966;2023-03-03T03:54:41;3.90;;;3.20;;
57889;SDS011;43707;50.184;18.966;2023-03-03T03:57:07;6.00;;;3.80;;
57889;SDS011;43707;50.184;18.966;2023-03-03T03:59:32;3.80;;;3.20;;
57889;SDS011;43707;50.184;18.966;2023-03-03T04:01:58;3.80;;;3.20;;
57889;SDS011;43707;50.184;18.966;2023-03-03T04:04:23;3.90;;;2.80;;
57889;SDS011;43707;50.184;18.966;2023-03-03T04:06:48;3.60;;;3.00;;
57889;SDS011;43707;50.184;18.966;2023-03-03T04:09:14;3.70;;;3.00;;
57889;SDS011;43707;50.184;18.966;2023-03-03T04:11:39;3.40;;;3.00;;
57889;SDS011;43707;50.184;18.966;2023-03-03T04:14:05;4.10;;;3.50;;
57889;SDS011;43707;50.184;18.966;2023-03-03T04:16:31;4.80;;;3.80;;
57889;SDS011;43707;50.184;18.966;2023-03-03T04:18:56;4.20;;;3.80;;
57889;SDS011;43707;50.184;18.966;2023-03-03T04:21:22;5.40;;;3.90;;
57889;SDS011;43707;50.184;18.966;2023-03-03T04:23:47;4.40;;;3.70;;
57889;SDS011;43707;50.184;18.966;2023-03-03T04:26:12;6.30;;;3.50;;
57889;SDS011;43707;50.184;18.966;2023-03-03T04:28:38;4.30;;;3.80;;
57889;SDS011;43707;50.184;18.966;2023-03-03T04:31:04;6.50;;;3.90;;
57889;SDS011;43707;50.184;18.966;2023-03-03T04:33:29;4.20;;;3.40;;
57889;SDS011;43707;50.184;18.966;2023-03-03T04:35:55;3.90;;;3.30;;
57889;SDS011;43707;50.184;18.966;2023-03-03T04:38:20;4.20;;;3.80;;
57889;SDS011;43707;50.184;18.966;2023-03-03T04:40:46;3.70;;;3.30;;
57889;SDS011;43707;50.184;18.966;2023-03-03T04:43:11;3.80;;;3.40;;
57889;SDS011;43707;50.184;18.966;2023-03-03T04:45:36;4.20;;;3.30;;
57889;SDS011;43707;50.184;18.966;2023-03-03T04:48:02;4.40;;;3.50;;
57889;SDS011;43707;50.184;18.966;2023-03-03T04:50:27;4.30;;;3.40;;
57889;SDS011;43707;50.184;18.966;2023-03-03T04:52:53;3.90;;;3.50;;
57889;SDS011;43707;50.184;18.966;2023-03-03T04:55:18;4.00;;;3.50;;
57889;SDS011;43707;50.184;18.966;2023-03-03T04:57:44;4.10;;;3.20;;
57889;SDS011;43707;50.184;18.966;2023-03-03T05:00:10;5.60;;;4.50;;
57889;SDS011;43707;50.184;18.966;2023-03-03T05:02:37;4.00;;;3.60;;
57889;SDS011;43707;50.184;18.966;2023-03-03T05:05:04;4.00;;;3.50;;
57889;SDS011;43707;50.184;18.966;2023-03-03T05:07:30;4.10;;;3.20;;
57889;SDS011;43707;50.184;18.966;2023-03-03T05:09:55;4.10;;;3.70;;
57889;SDS011;43707;50.184;18.966;2023-03-03T05:12:21;4.30;;;3.50;;
57889;SDS011;43707;50.184;18.966;2023-03-03T05:14:46;4.10;;;3.30;;
57889;SDS011;43707;50.184;18.966;2023-03-03T05:17:12;6.70;;;4.30;;
57889;SDS011;43707;50.184;18.966;2023-03-03T05:19:37;4.60;;;3.60;;
57889;SDS011;43707;50.184;18.966;2023-03-03T05:22:03;3.20;;;2.80;;
57889;SDS011;43707;50.184;18.966;2023-03-03T05:24:28;5.10;;;3.80;;
57889;SDS011;43707;50.184;18.966;2023-03-03T05:26:54;4.60;;;3.90;;
57889;SDS011;43707;50.184;18.966;2023-03-03T05:29:19;3.80;;;3.40;;
57889;SDS011;43707;50.184;18.966;2023-03-03T05:31:44;4.80;;;4.00;;
57889;SDS011;43707;50.184;18.966;2023-03-03T05:34:10;4.10;;;3.40;;
57889;SDS011;43707;50.184;18.966;2023-03-03T05:36:35;4.30;;;3.70;;
57889;SDS011;43707;50.184;18.966;2023-03-03T05:39:01;5.10;;;4.00;;
57889;SDS011;43707;50.184;18.966;2023-03-03T05:41:26;4.30;;;3.80;;
57889;SDS011;43707;50.184;18.966;2023-03-03T05:43:52;4.20;;;3.60;;
57889;SDS011;43707;50.184;18.966;2023-03-03T05:46:17;4.10;;;3.60;;
57889;SDS011;43707;50.184;18.966;2023-03-03T05:48:43;5.20;;;4.00;;
57889;SDS011;43707;50.184;18.966;2023-03-03T05:51:09;5.20;;;4.40;;
57889;SDS011;43707;50.184;18.966;2023-03-03T05:53:34;4.80;;;3.50;;
57889;SDS011;43707;50.184;18.966;2023-03-03T05:56:00;4.60;;;3.60;;
57889;SDS011;43707;50.184;18.966;2023-03-03T05:58:25;5.40;;;4.60;;
57889;SDS011;43707;50.184;18.966;2023-03-03T06:00:50;5.10;;;3.80;;
57889;SDS011;43707;50.184;18.966;2023-03-03T06:03:16;4.70;;;4.20;;
57889;SDS011;43707;50.184;18.966;2023-03-03T06:05:42;5.20;;;3.90;;
57889;SDS011;43707;50.184;18.966;2023-03-03T06:08:07;5.10;;;3.90;;
57889;SDS011;43707;50.184;18.966;2023-03-03T06:10:32;4.10;;;3.40;;
57889;SDS011;43707;50.184;18.966;2023-03-03T06:12:58;4.70;;;3.80;;
57889;SDS011;43707;50.184;18.966;2023-03-03T06:15:23;5.90;;;4.20;;
57889;SDS011;43707;50.184;18.966;2023-03-03T06:17:49;5.70;;;4.60;;
57889;SDS011;43707;50.184;18.966;2023-03-03T06:20:14;4.50;;;3.60;;
57889;SDS011;43707;50.184;18.966;2023-03-03T06:22:39;7.40;;;3.50;;
57889;SDS011;43707;50.184;18.966;2023-03-03T06:25:05;5.50;;;3.80;;
57889;SDS011;43707;50.184;18.966;2023-03-03T06:27:30;5.70;;;4.10;;
57889;SDS011;43707;50.184;18.966;2023-03-03T06:29:56;4.20;;;3.60;;
57889;SDS011;43707;50.184;18.966;2023-03-03T06:32:21;5.00;;;4.10;;
57889;SDS011;43707;50.184;18.966;2023-03-03T06:34:47;4.90;;;4.10;;
57889;SDS011;43707;50.184;18.966;2023-03-03T06:37:12;5.20;;;4.00;;
57889;SDS011;43707;50.184;18.966;2023-03-03T06:39:37;5.20;;;4.00;;
57889;SDS011;43707;50.184;18.966;2023-03-03T06:42:03;4.50;;;3.90;;
57889;SDS011;43707;50.184;18.966;2023-03-03T06:44:28;7.40;;;3.80;;
57889;SDS011;43707;50.184;18.966;2023-03-03T06:46:54;5.50;;;4.30;;
57889;SDS011;43707;50.184;18.966;2023-03-03T06:49:21;5.20;;;3.80;;
57889;SDS011;43707;50.184;18.966;2023-03-03T06:51:47;6.20;;;4.80;;
57889;SDS011;43707;50.184;18.966;2023-03-03T06:54:19;5.70;;;3.60;;
57889;SDS011;43707;50.184;18.966;2023-03-03T06:56:56;5.20;;;3.90;;
57889;SDS011;43707;50.184;18.966;2023-03-03T06:59:25;4.70;;;3.00;;
57889;SDS011;43707;50.184;18.966;2023-03-03T07:01:51;3.90;;;3.30;;
57889;SDS011;43707;50.184;18.966;2023-03-03T07:04:27;4.00;;;3.40;;
57889;SDS011;43707;50.184;18.966;2023-03-03T07:07:17;4.10;;;3.30;;
57889;SDS011;43707;50.184;18.966;2023-03-03T07:09:49;3.60;;;2.80;;
57889;SDS011;43707;50.184;18.966;2023-03-03T07:12:17;18.10;;;4.70;;
57889;SDS011;43707;50.184;18.966;2023-03-03T07:14:45;14.90;;;4.40;;
57889;SDS011;43707;50.184;18.966;2023-03-03T07:17:14;20.30;;;4.50;;
57889;SDS011;43707;50.184;18.966;2023-03-03T07:19:41;5.20;;;4.10;;
57889;SDS011;43707;50.184;18.966;2023-03-03T07:22:18;10.70;;;4.20;;
57889;SDS011;43707;50.184;18.966;2023-03-03T07:24:46;3.70;;;3.20;;
57889;SDS011;43707;50.184;18.966;2023-03-03T07:27:20;4.80;;;3.50;;
57889;SDS011;43707;50.184;18.966;2023-03-03T07:29:49;4.20;;;3.60;;
57889;SDS011;43707;50.184;18.966;2023-03-03T07:40:54;4.80;;;3.60;;
57889;SDS011;43707;50.184;18.966;2023-03-03T07:43:35;3.50;;;3.00;;
57889;SDS011;43707;50.184;18.966;2023-03-03T07:46:22;3.60;;;2.80;;
57889;SDS011;43707;50.184;18.966;2023-03-03T07:48:52;3.00;;;2.40;;
57889;SDS011;43707;50.184;18.966;2023-03-03T07:51:19;4.20;;;3.10;;
57889;SDS011;43707;50.184;18.966;2023-03-03T07:56:35;3.50;;;2.80;;
57889;SDS011;43707;50.184;18.966;2023-03-03T07:59:20;3.10;;;2.50;;
57889;SDS011;43707;50.184;18.966;2023-03-03T08:01:50;3.10;;;2.40;;
57889;SDS011;43707;50.184;18.966;2023-03-03T08:07:17;3.60;;;2.60;;
57889;SDS011;43707;50.184;18.966;2023-03-03T08:12:17;5.80;;;2.90;;
57889;SDS011;43707;50.184;18.966;2023-03-03T08:14:52;4.60;;;2.50;;
57889;SDS011;43707;50.184;18.966;2023-03-03T08:17:19;3.60;;;2.90;;
57889;SDS011;43707;50.184;18.966;2023-03-03T08:19:46;3.00;;;2.50;;
57889;SDS011;43707;50.184;18.966;2023-03-03T08:22:24;2.80;;;2.50;;
57889;SDS011;43707;50.184;18.966;2023-03-03T08:24:55;3.00;;;2.50;;
57889;SDS011;43707;50.184;18.966;2023-03-03T08:27:21;4.50;;;1.90;;
57889;SDS011;43707;50.184;18.966;2023-03-03T08:29:46;3.60;;;2.70;;
57889;SDS011;43707;50.184;18.966;2023-03-03T08:32:11;2.50;;;2.10;;
57889;SDS011;43707;50.184;18.966;2023-03-03T08:34:37;2.90;;;2.30;;
57889;SDS011;43707;50.184;18.966;2023-03-03T08:37:02;2.50;;;1.80;;
57889;SDS011;43707;50.184;18.966;2023-03-03T08:39:27;2.60;;;1.90;;
57889;SDS011;43707;50.184;18.966;2023-03-03T08:41:53;2.70;;;2.00;;
57889;SDS011;43707;50.184;18.966;2023-03-03T08:44:18;2.30;;;2.00;;
57889;SDS011;43707;50.184;18.966;2023-03-03T08:46:44;2.40;;;1.80;;
57889;SDS011;43707;50.184;18.966;2023-03-03T08:49:10;2.80;;;2.10;;
57889;SDS011;43707;50.184;18.966;2023-03-03T08:51:35;2.20;;;1.80;;
57889;SDS011;43707;50.184;18.966;2023-03-03T08:54:01;2.00;;;1.60;;
57889;SDS011;43707;50.184;18.966;2023-03-03T08:56:26;2.90;;;2.30;;
57889;SDS011;43707;50.184;18.966;2023-03-03T08:58:51;2.70;;;2.20;;
57889;SDS011;43707;50.184;18.966;2023-03-03T09:01:17;2.00;;;1.70;;
57889;SDS011;43707;50.184;18.966;2023-03-03T09:03:43;3.10;;;2.10;;
57889;SDS011;43707;50.184;18.966;2023-03-03T09:06:09;2.30;;;1.70;;
57889;SDS011;43707;50.184;18.966;2023-03-03T09:08:35;2.40;;;1.70;;
57889;SDS011;43707;50.184;18.966;2023-03-03T09:11:01;2.50;;;1.70;;
57889;SDS011;43707;50.184;18.966;2023-03-03T09:13:28;2.10;;;1.70;;
57889;SDS011;43707;50.184;18.966;2023-03-03T09:15:54;2.40;;;1.90;;
57889;SDS011;43707;50.184;18.966;2023-03-03T09:18:21;2.60;;;1.80;;
57889;SDS011;43707;50.184;18.966;2023-03-03T09:20:52;2.30;;;1.60;;
57889;SDS011;43707;50.184;18.966;2023-03-03T09:23:38;2.10;;;1.50;;
57889;SDS011;43707;50.184;18.966;2023-03-03T09:28:39;2.30;;;1.60;;
57889;SDS011;43707;50.184;18.966;2023-03-03T09:31:05;1.70;;;1.40;;
57889;SDS011;43707;50.184;18.966;2023-03-03T09:33:46;2.00;;;1.60;;
57889;SDS011;43707;50.184;18.966;2023-03-03T09:36:28;2.00;;;1.80;;
57889;SDS011;43707;50.184;18.966;2023-03-03T09:39:00;2.40;;;1.80;;
57889;SDS011;43707;50.184;18.966;2023-03-03T10:13:03;1.30;;;1.20;;
57889;SDS011;43707;50.184;18.966;2023-03-03T10:15:36;1.80;;;1.00;;
57889;SDS011;43707;50.184;18.966;2023-03-03T10:18:20;1.20;;;1.00;;
57889;SDS011;43707;50.184;18.966;2023-03-03T10:32:24;2.50;;;1.40;;
57889;SDS011;43707;50.184;18.966;2023-03-03T10:35:00;1.60;;;1.20;;
57889;SDS011;43707;50.184;18.966;2023-03-03T10:51:07;1.70;;;1.50;;
57889;SDS011;43707;50.184;18.966;2023-03-03T10:56:35;1.50;;;1.20;;
57889;SDS011;43707;50.184;18.966;2023-03-03T11:02:02;10.30;;;1.60;;
57889;SDS011;43707;50.184;18.966;2023-03-03T11:07:41;1.90;;;1.20;;
57889;SDS011;43707;50.184;18.966;2023-03-03T11:13:07;1.90;;;1.60;;
57889;SDS011;43707;50.184;18.966;2023-03-03T11:20:48;2.00;;;1.50;;
57889;SDS011;43707;50.184;18.966;2023-03-03T11:23:34;1.60;;;1.30;;
57889;SDS011;43707;50.184;18.966;2023-03-03T11:26:07;1.80;;;1.30;;
57889;SDS011;43707;50.184;18.966;2023-03-03T11:31:46;1.70;;;1.40;;
57889;SDS011;43707;50.184;18.966;2023-03-03T11:37:06;1.90;;;1.70;;
57889;SDS011;43707;50.184;18.966;2023-03-03T11:39:33;6.10;;;1.40;;
57889;SDS011;43707;50.184;18.966;2023-03-03T11:44:42;2.40;;;1.40;;
57889;SDS011;43707;50.184;18.966;2023-03-03T11:47:16;1.50;;;1.20;;
57889;SDS011;43707;50.184;18.966;2023-03-03T11:50:03;1.70;;;1.50;;
57889;SDS011;43707;50.184;18.966;2023-03-03T11:52:45;2.00;;;1.40;;
57889;SDS011;43707;50.184;18.966;2023-03-03T12:00:50;1.30;;;1.10;;
57889;SDS011;43707;50.184;18.966;2023-03-03T12:03:19;1.80;;;1.30;;
57889;SDS011;43707;50.184;18.966;2023-03-03T12:05:52;1.80;;;1.30;;
57889;SDS011;43707;50.184;18.966;2023-03-03T12:11:07;2.00;;;1.30;;
57889;SDS011;43707;50.184;18.966;2023-03-03T12:19:03;1.40;;;1.00;;
57889;SDS011;43707;50.184;18.966;2023-03-03T12:27:36;1.90;;;1.30;;
57889;SDS011;43707;50.184;18.966;2023-03-03T12:33:31;2.00;;;1.80;;
57889;SDS011;43707;50.184;18.966;2023-03-03T12:47:22;2.10;;;1.70;;
57889;SDS011;43707;50.184;18.966;2023-03-03T12:58:20;1.90;;;1.50;;
57889;SDS011;43707;50.184;18.966;2023-03-03T13:03:39;4.70;;;1.60;;
57889;SDS011;43707;50.184;18.966;2023-03-03T13:06:50;1.90;;;1.40;;
57889;SDS011;43707;50.184;18.966;2023-03-03T13:09:25;1.80;;;1.20;;
57889;SDS011;43707;50.184;18.966;2023-03-03T13:12:23;2.00;;;1.30;;
57889;SDS011;43707;50.184;18.966;2023-03-03T13:20:28;2.00;;;1.50;;
57889;SDS011;43707;50.184;18.966;2023-03-03T13:29:02;3.70;;;1.30;;
57889;SDS011;43707;50.184;18.966;2023-03-03T13:31:32;1.80;;;1.50;;
57889;SDS011;43707;50.184;18.966;2023-03-03T13:33:59;4.00;;;1.70;;
57889;SDS011;43707;50.184;18.966;2023-03-03T13:39:04;2.00;;;1.60;;
57889;SDS011;43707;50.184;18.966;2023-03-03T13:44:23;2.00;;;1.40;;
57889;SDS011;43707;50.184;18.966;2023-03-03T13:50:34;1.30;;;1.20;;
57889;SDS011;43707;50.184;18.966;2023-03-03T13:53:01;1.40;;;1.30;;
57889;SDS011;43707;50.184;18.966;2023-03-03T13:55:59;2.50;;;1.60;;
57889;SDS011;43707;50.184;18.966;2023-03-03T13:58:45;2.00;;;1.80;;
57889;SDS011;43707;50.184;18.966;2023-03-03T14:06:52;4.80;;;1.20;;
57889;SDS011;43707;50.184;18.966;2023-03-03T14:09:28;2.20;;;1.60;;
57889;SDS011;43707;50.184;18.966;2023-03-03T14:19:57;1.40;;;1.20;;
57889;SDS011;43707;50.184;18.966;2023-03-03T14:25:12;1.50;;;1.20;;
57889;SDS011;43707;50.184;18.966;2023-03-03T14:27:40;1.70;;;1.20;;
57889;SDS011;43707;50.184;18.966;2023-03-03T14:38:13;1.70;;;1.50;;
57889;SDS011;43707;50.184;18.966;2023-03-03T14:40:40;5.20;;;1.60;;
57889;SDS011;43707;50.184;18.966;2023-03-03T14:45:47;2.00;;;1.40;;
57889;SDS011;43707;50.184;18.966;2023-03-03T14:50:55;1.90;;;1.50;;
57889;SDS011;43707;50.184;18.966;2023-03-03T14:55:53;1.70;;;1.30;;
57889;SDS011;43707;50.184;18.966;2023-03-03T15:03:47;2.00;;;1.80;;
57889;SDS011;43707;50.184;18.966;2023-03-03T15:11:59;1.70;;;1.30;;
57889;SDS011;43707;50.184;18.966;2023-03-03T15:14:34;1.40;;;1.00;;
57889;SDS011;43707;50.184;18.966;2023-03-03T15:25:25;1.50;;;1.40;;
57889;SDS011;43707;50.184;18.966;2023-03-03T15:30:44;1.60;;;1.20;;
57889;SDS011;43707;50.184;18.966;2023-03-03T15:38:46;0.90;;;0.80;;
57889;SDS011;43707;50.184;18.966;2023-03-03T15:44:31;1.20;;;0.90;;
57889;SDS011;43707;50.184;18.966;2023-03-03T15:49:49;1.10;;;1.00;;
57889;SDS011;43707;50.184;18.966;2023-03-03T15:52:21;1.50;;;1.10;;
57889;SDS011;43707;50.184;18.966;2023-03-03T15:54:57;0.80;;;0.80;;
57889;SDS011;43707;50.184;18.966;2023-03-03T16:03:18;0.80;;;0.80;;
57889;SDS011;43707;50.184;18.966;2023-03-03T16:08:22;4.60;;;1.90;;
57889;SDS011;43707;50.184;18.966;2023-03-03T16:21:48;1.60;;;1.30;;
57889;SDS011;43707;50.184;18.966;2023-03-03T16:27:35;7.50;;;1.30;;
57889;SDS011;43707;50.184;18.966;2023-03-03T16:35:44;1.10;;;1.00;;
57889;SDS011;43707;50.184;18.966;2023-03-03T16:38:17;1.00;;;0.90;;
57889;SDS011;43707;50.184;18.966;2023-03-03T16:40:53;1.20;;;1.10;;
57889;SDS011;43707;50.184;18.966;2023-03-03T16:49:24;0.90;;;0.80;;
57889;SDS011;43707;50.184;18.966;2023-03-03T16:52:13;1.50;;;1.30;;
57889;SDS011;43707;50.184;18.966;2023-03-03T17:05:12;1.90;;;1.40;;
57889;SDS011;43707;50.184;18.966;2023-03-03T17:13:53;1.50;;;1.40;;
57889;SDS011;43707;50.184;18.966;2023-03-03T17:22:18;1.80;;;1.50;;
57889;SDS011;43707;50.184;18.966;2023-03-03T17:25:07;1.60;;;1.20;;
57889;SDS011;43707;50.184;18.966;2023-03-03T17:30:38;2.20;;;1.30;;
57889;SDS011;43707;50.184;18.966;2023-03-03T17:33:17;1.80;;;1.50;;
57889;SDS011;43707;50.184;18.966;2023-03-03T17:41:33;2.00;;;1.50;;
57889;SDS011;43707;50.184;18.966;2023-03-03T17:54:58;1.70;;;1.20;;
57889;SDS011;43707;50.184;18.966;2023-03-03T18:08:07;3.70;;;1.10;;
57889;SDS011;43707;50.184;18.966;2023-03-03T18:11:01;1.80;;;1.20;;
57889;SDS011;43707;50.184;18.966;2023-03-03T18:13:43;1.60;;;1.00;;
57889;SDS011;43707;50.184;18.966;2023-03-03T18:40:51;1.10;;;1.00;;
57889;SDS011;43707;50.184;18.966;2023-03-03T18:46:09;1.00;;;0.80;;
57889;SDS011;43707;50.184;18.966;2023-03-03T18:49:06;2.10;;;1.30;;
57889;SDS011;43707;50.184;18.966;2023-03-03T18:53:59;1.90;;;0.80;;
57889;SDS011;43707;50.184;18.966;2023-03-03T19:04:43;1.70;;;1.00;;
57889;SDS011;43707;50.184;18.966;2023-03-03T19:10:00;1.50;;;0.80;;
57889;SDS011;43707;50.184;18.966;2023-03-03T19:12:42;1.20;;;1.10;;
57889;SDS011;43707;50.184;18.966;2023-03-03T19:20:42;1.20;;;1.10;;
57889;SDS011;43707;50.184;18.966;2023-03-03T19:23:21;1.20;;;1.10;;
57889;SDS011;43707;50.184;18.966;2023-03-03T19:34:38;1.50;;;0.90;;
57889;SDS011;43707;50.184;18.966;2023-03-03T19:48:47;1.10;;;0.90;;
57889;SDS011;43707;50.184;18.966;2023-03-03T19:51:30;1.30;;;1.20;;
57889;SDS011;43707;50.184;18.966;2023-03-03T19:56:48;1.50;;;1.00;;
57889;SDS011;43707;50.184;18.966;2023-03-03T19:59:27;1.50;;;1.00;;
57889;SDS011;43707;50.184;18.966;2023-03-03T20:07:48;2.50;;;1.80;;
57889;SDS011;43707;50.184;18.966;2023-03-03T20:10:23;2.10;;;1.70;;
57889;SDS011;43707;50.184;18.966;2023-03-03T20:13:02;2.50;;;1.40;;
57889;SDS011;43707;50.184;18.966;2023-03-03T20:15:37;1.50;;;1.40;;
57889;SDS011;43707;50.184;18.966;2023-03-03T20:27:02;1.40;;;1.20;;
57889;SDS011;43707;50.184;18.966;2023-03-03T20:40:19;1.60;;;1.40;;
57889;SDS011;43707;50.184;18.966;2023-03-03T20:53:50;2.20;;;1.80;;
57889;SDS011;43707;50.184;18.966;2023-03-03T20:56:18;2.30;;;1.40;;
57889;SDS011;43707;50.184;18.966;2023-03-03T21:01:26;2.10;;;1.40;;
57889;SDS011;43707;50.184;18.966;2023-03-03T21:04:15;1.60;;;1.50;;
57889;SDS011;43707;50.184;18.966;2023-03-03T21:06:51;1.60;;;1.20;;
57889;SDS011;43707;50.184;18.966;2023-03-03T21:09:30;2.10;;;1.40;;
57889;SDS011;43707;50.184;18.966;2023-03-03T21:12:10;2.20;;;1.30;;
57889;SDS011;43707;50.184;18.966;2023-03-03T21:15:03;1.60;;;1.30;;
57889;SDS011;43707;50.184;18.966;2023-03-03T21:17:32;2.00;;;1.40;;
57889;SDS011;43707;50.184;18.966;2023-03-03T21:20:22;1.60;;;1.10;;
57889;SDS011;43707;50.184;18.966;2023-03-03T21:22:49;1.40;;;1.20;;
57889;SDS011;43707;50.184;18.966;2023-03-03T21:28:19;1.40;;;1.20;;
57889;SDS011;43707;50.184;18.966;2023-03-03T21:30:58;1.40;;;1.20;;
57889;SDS011;43707;50.184;18.966;2023-03-03T21:33:43;1.10;;;1.00;;
57889;SDS011;43707;50.184;18.966;2023-03-03T21:36:14;1.40;;;1.10;;
57889;SDS011;43707;50.184;18.966;2023-03-03T21:38:59;1.70;;;1.30;;
57889;SDS011;43707;50.184;18.966;2023-03-03T21:41:26;1.30;;;1.20;;
57889;SDS011;43707;50.184;18.966;2023-03-03T21:43:51;1.50;;;1.00;;
57889;SDS011;43707;50.184;18.966;2023-03-03T21:46:21;1.50;;;1.30;;
57889;SDS011;43707;50.184;18.966;2023-03-03T21:48:48;1.60;;;1.40;;
57889;SDS011;43707;50.184;18.966;2023-03-03T21:51:14;1.10;;;0.90;;
57889;SDS011;43707;50.184;18.966;2023-03-03T21:53:41;1.10;;;1.00;;
57889;SDS011;43707;50.184;18.966;2023-03-03T21:56:08;1.20;;;0.90;;
57889;SDS011;43707;50.184;18.966;2023-03-03T21:58:34;1.50;;;1.10;;
57889;SDS011;43707;50.184;18.966;2023-03-03T22:01:02;1.50;;;1.10;;
57889;SDS011;43707;50.184;18.966;2023-03-03T22:03:29;2.50;;;0.90;;
57889;SDS011;43707;50.184;18.966;2023-03-03T22:05:54;2.40;;;1.20;;
57889;SDS011;43707;50.184;18.966;2023-03-03T22:08:20;1.20;;;1.10;;
57889;SDS011;43707;50.184;18.966;2023-03-03T22:10:50;1.20;;;0.90;;
57889;SDS011;43707;50.184;18.966;2023-03-03T22:13:20;0.80;;;0.80;;
57889;SDS011;43707;50.184;18.966;2023-03-03T22:15:47;0.90;;;0.70;;
57889;SDS011;43707;50.184;18.966;2023-03-03T22:18:13;1.20;;;1.10;;
57889;SDS011;43707;50.184;18.966;2023-03-03T22:20:39;1.70;;;1.40;;